Axis, Alabama
Current Conditions -  °F | °C
As of 10:53 PM on Friday 24 Oct 2014 (Local Time) from KBFM Reporting Station
Clear Clear  
Wind Chill: 58°   Ceiling: Unl
Heat Index: 58°   Visibility: 10mi
Dew Point: 49°   Wind: 7mph
Humidity: 72%   Direction: 320°NW
Pressure: 30.09"   Gusts: NA
Location:  30.93°N, 88.03°W
Report Text: KBFM 250353Z AUTO 32006KT 10SM CLR 14/09 A3009 RMK AO2 SLP190 T01440094
Loading
Personal Weather Stations






























Interactive Weather Map New forecast layout! Learn more

10-Day Weather Forecast

Advertisements
Track Severe Weather on mobile